Republic, Ohio
Current Conditions -  °F | °C
As of 4:13 PM on Tuesday 21 Oct 2014 (Local Time) from KPCW Reporting Station
Overcast Overcast  
Wind Chill:   Ceiling: 3700
Heat Index:   Visibility: 10mi
Dew Point:   Wind: 15mph
Humidity: 76%   Direction: 20°NNE
Pressure: 30.05"   Gusts: NA
Location:  41.12°N, 83.02°W
Report Text: KPCW 212013Z AUTO 02013KT 10SM FEW023 OVC037 08/04 A3005 RMK AO2 $
Loading
Personal Weather Stations






























Interactive Weather Map
Tropical Storm Tracking
New forecast layout! Learn more

10-Day Weather Forecast

Advertisements
Track Severe Weather on mobile